Time;durP1;ratioP1;P1;durP2;ratioP2;P2;SDS_P1;SDS_P2;PMS_P1;PMS_P2;Temp;Humidity;BMP_temperature;BMP_pressure;BME280_temperature;BME280_humidity;BME280_pressure;Samples;Min_cycle;Max_cycle;Signal;HPM_P1;HPM_P2
2022/03/27 00:01:32;;;;;;;15.95;10.38;;;;;;;8.82;76.54;102973.88;5056664;28;20071;-94
2022/03/27 00:03:58;;;;;;;17.95;10.85;;;;;;;8.74;76.75;102959.81;5057885;28;20028;-94
2022/03/27 00:06:23;;;;;;;13.52;10.15;;;;;;;8.76;77.16;102975.72;5058261;28;20118;-94
2022/03/27 00:08:48;;;;;;;14.05;10.13;;;;;;;8.70;77.19;102974.88;5068204;28;20033;-94
2022/03/27 00:11:27;;;;;;;13.82;9.15;;;;;;;8.67;77.63;102976.69;5062425;28;20033;-94
2022/03/27 00:14:02;;;;;;;17.00;10.55;;;;;;;8.64;76.94;102980.22;5052238;28;20481;-94
2022/03/27 00:16:28;;;;;;;16.15;10.00;;;;;;;8.65;77.55;102981.09;5051200;28;20037;-94
2022/03/27 00:18:53;;;;;;;14.52;10.40;;;;;;;8.61;77.24;102977.63;5052192;28;20474;-94
2022/03/27 00:21:21;;;;;;;16.77;9.82;;;;;;;8.58;77.53;102974.97;5051879;28;20033;-93
2022/03/27 00:23:47;;;;;;;16.90;9.82;;;;;;;8.57;77.16;102981.19;5052248;28;20098;-94
2022/03/27 00:26:14;;;;;;;14.23;9.63;;;;;;;8.62;76.77;102979.38;5050955;28;20036;-93
2022/03/27 00:28:39;;;;;;;14.15;9.82;;;;;;;8.52;77.01;102968.84;5049765;28;20169;-93
2022/03/27 00:31:07;;;;;;;16.92;10.45;;;;;;;8.55;77.37;102975.00;5052821;28;20075;-93
2022/03/27 00:33:34;;;;;;;15.88;10.70;;;;;;;8.56;77.22;102978.53;5062784;28;20077;-93
2022/03/27 00:36:00;;;;;;;16.38;10.60;;;;;;;8.50;77.62;102976.81;5050210;28;20036;-92
2022/03/27 00:38:26;;;;;;;12.77;9.70;;;;;;;8.46;77.92;102970.66;5053928;28;20390;-93
2022/03/27 00:40:53;;;;;;;15.45;9.93;;;;;;;8.42;78.37;102976.88;5057096;28;20040;-94
2022/03/27 00:43:20;;;;;;;17.38;10.60;;;;;;;8.34;78.97;102975.13;5053766;28;20479;-94
2022/03/27 00:45:46;;;;;;;15.15;10.18;;;;;;;8.31;78.89;102972.50;5051548;28;20055;-94
2022/03/27 00:48:13;;;;;;;13.70;9.30;;;;;;;8.32;78.62;102961.00;5054098;28;20036;-93
2022/03/27 00:50:38;;;;;;;13.63;9.95;;;;;;;8.30;78.92;102968.09;5053751;28;21677;-93
2022/03/27 00:53:04;;;;;;;18.38;10.55;;;;;;;8.22;78.68;102965.50;5061163;28;20470;-92
2022/03/27 00:55:29;;;;;;;16.75;10.98;;;;;;;8.03;79.74;102948.84;5061086;28;20049;-92
2022/03/27 00:57:55;;;;;;;16.42;10.30;;;;;;;8.18;79.74;102967.28;5058489;28;20025;-92
2022/03/27 01:00:39;;;;;;;19.20;10.30;;;;;;;8.18;78.39;102963.75;5058546;28;20495;-93
2022/03/27 01:03:11;;;;;;;15.02;10.40;;;;;;;8.13;79.44;102968.22;5060457;28;20025;-92
2022/03/27 01:05:37;;;;;;;14.38;10.38;;;;;;;8.02;79.81;102954.13;5051157;28;20444;-93
2022/03/27 01:08:06;;;;;;;19.65;10.57;;;;;;;7.98;80.76;102955.91;5053432;28;20025;-93
2022/03/27 01:10:31;;;;;;;16.63;9.63;;;;;;;7.98;80.55;102961.22;5054704;28;20033;-93
2022/03/27 01:12:57;;;;;;;13.98;10.13;;;;;;;7.94;80.97;102963.03;5061910;28;20067;-93
2022/03/27 01:15:41;;;;;;;14.07;9.55;;;;;;;7.94;80.73;102965.69;5055681;28;20024;-93
2022/03/27 01:18:07;;;;;;;16.13;9.95;;;;;;;7.89;81.29;102964.81;5054811;28;20036;-94
2022/03/27 01:20:34;;;;;;;16.70;10.02;;;;;;;7.88;80.81;102960.41;5059725;28;20089;-93
2022/03/27 01:23:00;;;;;;;13.90;9.77;;;;;;;7.94;80.71;102965.69;5050119;28;20433;-93
2022/03/27 01:25:26;;;;;;;14.93;10.15;;;;;;;7.88;81.94;102965.72;5050539;28;20036;-93
2022/03/27 01:27:51;;;;;;;15.00;10.70;;;;;;;7.88;81.72;102971.03;5055283;28;20029;-94
2022/03/27 01:30:17;;;;;;;19.15;10.88;;;;;;;7.86;81.33;102970.16;5052369;28;20035;-93
2022/03/27 01:32:42;;;;;;;15.35;9.57;;;;;;;7.82;80.91;102957.81;5051343;28;20025;-94
2022/03/27 01:35:08;;;;;;;15.85;9.63;;;;;;;7.80;80.37;102956.91;5052006;28;20028;-93
2022/03/27 01:37:33;;;;;;;14.43;10.27;;;;;;;7.82;80.88;102964.88;5050448;28;20029;-93
2022/03/27 01:39:58;;;;;;;13.63;10.40;;;;;;;7.78;81.03;102956.06;5053854;28;20379;-94
2022/03/27 01:42:23;;;;;;;13.93;9.50;;;;;;;7.77;80.74;102956.94;5055059;28;20029;-93
2022/03/27 01:44:49;;;;;;;13.20;9.63;;;;;;;7.69;81.84;102948.13;5050074;28;20028;-93
2022/03/27 01:47:14;;;;;;;18.30;10.45;;;;;;;7.58;82.83;102942.91;5051651;28;20033;-94
2022/03/27 01:49:42;;;;;;;14.55;9.82;;;;;;;7.55;83.26;102950.00;5053784;28;20055;-92
2022/03/27 01:52:08;;;;;;;14.68;9.98;;;;;;;7.57;82.78;102956.19;5049789;28;20941;-92
2022/03/27 01:54:34;;;;;;;15.05;10.15;;;;;;;7.55;82.58;102957.94;5048613;28;20116;-92
2022/03/27 01:56:59;;;;;;;15.63;9.55;;;;;;;7.54;82.30;102958.84;5051401;28;20029;-92
2022/03/27 01:59:24;;;;;;;14.70;9.80;;;;;;;7.39;83.06;102939.44;5049710;28;20063;-93
2022/03/27 02:01:50;;;;;;;16.83;9.23;;;;;;;7.42;82.95;102939.44;5049875;28;20094;-94
2022/03/27 02:04:16;;;;;;;16.73;9.75;;;;;;;7.41;84.09;102956.22;5046738;28;20143;-94
2022/03/27 02:06:43;;;;;;;11.75;8.70;;;;;;;7.39;84.01;102954.47;5049093;28;20033;-93
2022/03/27 02:09:10;;;;;;;15.30;10.45;;;;;;;7.31;84.35;102946.53;5055559;28;20115;-92
2022/03/27 02:11:36;;;;;;;15.20;9.70;;;;;;;7.29;84.86;102950.97;5051937;28;20078;-93
2022/03/27 02:14:01;;;;;;;15.38;9.80;;;;;;;7.31;84.93;102959.78;5049271;28;20116;-94
2022/03/27 02:16:26;;;;;;;15.27;9.65;;;;;;;7.21;85.52;102944.81;5050194;28;20979;-93
2022/03/27 02:18:52;;;;;;;14.20;9.85;;;;;;;7.24;84.75;102953.66;5051510;28;20025;-93
2022/03/27 02:21:17;;;;;;;14.05;9.13;;;;;;;7.22;84.76;102946.59;5050728;28;20058;-92
2022/03/27 02:23:42;;;;;;;16.23;10.35;;;;;;;7.22;85.24;102957.19;5049047;28;20035;-92
2022/03/27 02:26:08;;;;;;;14.98;9.95;;;;;;;7.13;85.79;102951.91;5049371;28;20414;-92
2022/03/27 02:28:33;;;;;;;18.38;10.15;;;;;;;7.05;85.78;102933.38;5048131;28;20025;-92
2022/03/27 02:30:59;;;;;;;16.02;10.57;;;;;;;7.13;86.84;102949.25;5049799;28;20033;-94
2022/03/27 02:33:24;;;;;;;14.70;10.10;;;;;;;7.04;86.71;102941.34;5046741;28;20636;-93
2022/03/27 02:35:50;;;;;;;14.68;10.50;;;;;;;7.00;87.85;102937.81;5049556;28;20049;-94
2022/03/27 02:38:15;;;;;;;15.05;10.82;;;;;;;7.01;88.15;102946.66;5051109;28;20033;-93
2022/03/27 02:40:42;;;;;;;14.35;10.02;;;;;;;6.89;88.24;102929.91;5052895;28;20044;-93
2022/03/27 02:43:09;;;;;;;16.05;10.55;;;;;;;6.89;88.34;102931.66;5050539;28;20036;-94
2022/03/27 02:45:35;;;;;;;18.23;10.90;;;;;;;6.87;88.58;102938.75;5046962;28;20037;-92
2022/03/27 02:48:01;;;;;;;14.93;10.65;;;;;;;6.84;89.17;102936.97;5049012;28;20044;-93
2022/03/27 02:50:29;;;;;;;16.65;10.82;;;;;;;6.83;89.10;102945.81;5062844;28;20028;-92
2022/03/27 02:52:55;;;;;;;17.33;11.95;;;;;;;6.82;89.68;102945.81;5069433;28;20022;-92
2022/03/27 02:55:22;;;;;;;17.13;11.20;;;;;;;6.79;90.07;102924.66;5055064;28;20478;-92
2022/03/27 02:57:48;;;;;;;19.13;11.93;;;;;;;6.85;90.20;102935.19;5055900;28;20028;-94
2022/03/27 03:00:13;;;;;;;19.55;12.27;;;;;;;6.88;90.41;102930.78;5056623;28;20037;-93
2022/03/27 03:02:39;;;;;;;14.65;11.38;;;;;;;6.92;90.58;102932.53;5050318;28;20111;-92
2022/03/27 03:05:04;;;;;;;16.67;11.82;;;;;;;6.97;90.39;102928.09;5043146;28;20504;-94
2022/03/27 03:07:30;;;;;;;19.50;12.15;;;;;;;6.96;90.00;102918.41;5049828;28;20036;-93
2022/03/27 03:09:56;;;;;;;20.25;13.25;;;;;;;7.04;90.88;102933.41;5054966;28;20033;-93
2022/03/27 03:12:21;;;;;;;19.50;13.20;;;;;;;7.14;90.25;102943.94;5050294;28;20433;-94
2022/03/27 03:14:47;;;;;;;23.80;14.88;;;;;;;7.12;90.65;102939.56;5054984;28;20028;-93
2022/03/27 03:17:12;;;;;;;25.75;15.27;;;;;;;7.14;91.08;102949.25;5070682;28;20284;-92
2022/03/27 03:19:38;;;;;;;25.80;15.15;;;;;;;7.12;91.59;102940.44;5051520;28;20478;-93
2022/03/27 03:22:04;;;;;;;25.92;16.13;;;;;;;7.16;91.23;102947.50;5055373;28;20033;-93
2022/03/27 03:24:30;;;;;;;26.42;16.52;;;;;;;7.17;91.42;102943.06;5050854;28;20070;-94
2022/03/27 03:26:56;;;;;;;25.00;17.40;;;;;;;7.18;91.82;102947.47;5055356;28;20045;-93
2022/03/27 03:29:21;;;;;;;28.52;18.05;;;;;;;7.12;92.54;102943.09;5044793;28;20115;-94
2022/03/27 03:31:47;;;;;;;26.75;16.60;;;;;;;7.12;92.39;102936.91;5051774;28;20385;-93
2022/03/27 03:34:13;;;;;;;26.73;17.52;;;;;;;7.17;92.57;102938.66;5051957;28;20037;-93
2022/03/27 03:36:38;;;;;;;30.17;17.92;;;;;;;7.11;93.07;102924.56;5054298;28;20070;-93
2022/03/27 03:39:04;;;;;;;28.08;18.20;;;;;;;7.19;92.79;102936.00;5052131;28;20033;-93
2022/03/27 03:41:29;;;;;;;28.83;18.52;;;;;;;7.16;93.17;102930.72;5052190;28;20025;-93
2022/03/27 03:43:55;;;;;;;31.63;17.92;;;;;;;7.17;93.30;102933.34;5046191;28;20057;-93
2022/03/27 03:46:20;;;;;;;29.75;18.27;;;;;;;7.21;92.95;102934.22;5051316;28;20037;-92
2022/03/27 03:48:45;;;;;;;26.08;17.55;;;;;;;7.26;92.99;102932.44;5053776;28;20071;-93
2022/03/27 03:51:10;;;;;;;30.30;19.45;;;;;;;7.21;93.53;102927.16;5053263;28;20110;-93
2022/03/27 03:53:36;;;;;;;27.85;17.83;;;;;;;7.23;92.95;102933.34;5049949;28;20029;-94
2022/03/27 03:56:01;;;;;;;28.92;19.10;;;;;;;7.27;93.33;102934.19;5050588;28;20036;-94
2022/03/27 03:58:26;;;;;;;29.80;19.35;;;;;;;7.22;93.47;102930.69;5049945;28;20033;-93
2022/03/27 04:00:52;;;;;;;31.13;19.50;;;;;;;7.22;93.48;102936.00;5032726;28;20163;-94
2022/03/27 04:03:17;;;;;;;26.45;18.23;;;;;;;7.25;93.45;102933.34;5049033;28;20037;-94
2022/03/27 04:05:42;;;;;;;30.50;18.83;;;;;;;7.29;93.39;102940.38;5049801;28;20033;-93
2022/03/27 04:08:08;;;;;;;29.60;19.30;;;;;;;7.21;93.79;102935.09;5051088;28;20031;-93
2022/03/27 04:10:33;;;;;;;28.38;18.58;;;;;;;7.22;94.20;102939.50;5053810;28;20029;-94
2022/03/27 04:12:58;;;;;;;27.40;18.95;;;;;;;7.13;94.24;102933.38;5052813;28;20029;-92
2022/03/27 04:15:24;;;;;;;30.75;18.73;;;;;;;7.18;94.07;102923.63;5073535;28;20035;-93
2022/03/27 04:17:51;;;;;;;30.25;17.85;;;;;;;7.28;94.28;102932.47;5051582;28;20083;-93
2022/03/27 04:20:17;;;;;;;30.88;20.05;;;;;;;7.21;94.48;102931.59;5051220;28;20028;-93
2022/03/27 04:22:44;;;;;;;27.20;18.13;;;;;;;7.24;94.19;102923.63;5049299;28;20100;-93
2022/03/27 04:25:10;;;;;;;33.67;19.17;;;;;;;7.15;94.62;102913.97;5069019;28;20076;-93
2022/03/27 04:27:36;;;;;;;31.40;19.65;;;;;;;7.24;94.40;102931.59;5060940;28;20031;-94
2022/03/27 04:30:09;;;;;;;33.85;19.83;;;;;;;7.21;94.90;102926.28;5052106;28;20021;-93
2022/03/27 04:32:36;;;;;;;30.27;19.45;;;;;;;7.21;94.59;102934.22;5049579;28;20540;-93
2022/03/27 04:35:02;;;;;;;31.42;20.13;;;;;;;7.17;94.90;102930.72;5052423;28;20068;-93
2022/03/27 04:37:27;;;;;;;29.85;19.77;;;;;;;7.13;95.32;102930.72;5051550;28;20064;-92
2022/03/27 04:39:54;;;;;;;28.88;19.30;;;;;;;7.14;95.45;102938.66;5050233;28;20076;-92
2022/03/27 04:42:20;;;;;;;30.08;19.77;;;;;;;7.16;94.96;102936.03;5045205;28;20025;-93
2022/03/27 04:44:45;;;;;;;29.20;18.42;;;;;;;7.16;95.05;102928.94;5052848;28;20804;-92
2022/03/27 04:47:11;;;;;;;32.42;20.58;;;;;;;7.27;94.86;102936.84;5050620;28;20029;-93
2022/03/27 04:49:36;;;;;;;28.77;19.33;;;;;;;7.29;94.89;102943.03;5051918;28;20385;-92
2022/03/27 04:52:01;;;;;;;30.75;21.20;;;;;;;7.24;94.92;102935.09;5051844;28;20048;-92
2022/03/27 04:54:26;;;;;;;33.50;21.25;;;;;;;7.24;94.66;102931.59;5053485;28;20041;-93
2022/03/27 04:56:52;;;;;;;32.47;20.73;;;;;;;7.28;94.85;102945.69;5049130;28;20513;-92
2022/03/27 04:59:17;;;;;;;33.97;21.95;;;;;;;7.24;94.93;102943.06;5068932;28;20429;-92
2022/03/27 05:01:42;;;;;;;31.75;21.63;;;;;;;7.23;94.99;102938.66;5049548;28;20121;-91
2022/03/27 05:04:08;;;;;;;34.97;21.92;;;;;;;7.16;95.16;102921.00;5032248;28;20410;-94
2022/03/27 05:06:34;;;;;;;31.63;20.98;;;;;;;7.17;94.98;102927.19;5051825;28;20044;-92
2022/03/27 05:08:59;;;;;;;45.42;23.77;;;;;;;7.21;95.02;102948.34;5051705;28;20055;-93
2022/03/27 05:11:28;;;;;;;40.53;22.25;;;;;;;7.05;95.43;102935.16;5059935;28;20052;-92
2022/03/27 05:13:53;;;;;;;48.40;21.95;;;;;;;6.96;95.93;102944.88;5049849;28;20032;-93
2022/03/27 05:16:19;;;;;;;48.65;21.33;;;;;;;6.95;95.93;102961.66;5057483;28;20024;-94
2022/03/27 05:18:44;;;;;;;34.38;20.17;;;;;;;6.92;96.21;102953.72;5049834;28;20039;-92
2022/03/27 05:21:09;;;;;;;37.50;20.42;;;;;;;6.83;96.09;102937.88;5053065;28;20040;-93
2022/03/27 05:23:35;;;;;;;36.38;20.15;;;;;;;6.85;96.24;102943.16;5049534;28;20031;-93
2022/03/27 05:26:00;;;;;;;42.10;20.08;;;;;;;6.78;96.22;102939.66;5056138;28;20028;-93
2022/03/27 05:28:26;;;;;;;40.65;20.95;;;;;;;6.71;96.64;102940.53;5055101;28;20559;-93
2022/03/27 05:30:52;;;;;;;40.00;21.50;;;;;;;6.77;96.62;102958.16;5060891;28;20033;-93
2022/03/27 05:33:18;;;;;;;36.15;20.48;;;;;;;6.73;96.81;102947.59;5057434;28;20054;-94
2022/03/27 05:35:43;;;;;;;39.15;20.73;;;;;;;6.86;96.70;102960.81;5062277;28;20036;-93
2022/03/27 05:38:08;;;;;;;39.90;21.55;;;;;;;6.81;96.64;102965.22;5033949;28;20482;-93
2022/03/27 05:40:34;;;;;;;43.50;21.70;;;;;;;6.77;97.03;102960.81;5053470;28;20238;-94
2022/03/27 05:42:59;;;;;;;40.22;22.08;;;;;;;6.67;97.24;102942.28;5050953;28;20033;-94
2022/03/27 05:45:25;;;;;;;38.58;21.27;;;;;;;6.78;97.12;102959.94;5052092;28;20049;-93
2022/03/27 05:47:51;;;;;;;44.00;22.65;;;;;;;6.77;97.03;102947.56;5053302;28;20067;-93
2022/03/27 05:50:18;;;;;;;54.40;23.08;;;;;;;6.71;97.46;102951.13;5052017;28;20132;-94
2022/03/27 05:52:45;;;;;;;41.53;21.40;;;;;;;6.70;97.53;102949.34;5050080;28;20071;-92
2022/03/27 05:55:12;;;;;;;48.83;22.92;;;;;;;6.78;97.46;102966.13;5053537;28;20017;-92
2022/03/27 05:57:37;;;;;;;46.33;23.70;;;;;;;6.84;97.45;102965.22;5065570;28;20439;-92
2022/03/27 06:00:05;;;;;;;44.42;23.85;;;;;;;6.76;97.42;102962.56;5058120;28;20056;-93
2022/03/27 06:02:31;;;;;;;57.10;26.15;;;;;;;6.86;97.61;102974.94;5045189;28;20075;-94
2022/03/27 06:04:56;;;;;;;58.75;25.23;;;;;;;6.85;97.47;102973.13;5040488;28;20434;-93
2022/03/27 06:07:22;;;;;;;63.95;29.42;;;;;;;6.82;97.86;102967.00;5045086;28;20021;-92
2022/03/27 06:09:47;;;;;;;73.15;30.70;;;;;;;6.89;97.99;102987.25;5050286;28;20089;-93
2022/03/27 06:12:14;;;;;;;66.15;29.58;;;;;;;6.88;97.86;102983.72;5050618;28;20531;-93
2022/03/27 06:14:39;;;;;;;71.40;32.35;;;;;;;6.88;97.79;102980.22;5048909;28;20029;-94
2022/03/27 06:17:04;;;;;;;70.07;31.92;;;;;;;6.93;97.68;102986.38;5049126;28;20036;-87
2022/03/27 06:19:30;;;;;;;70.75;31.38;;;;;;;6.87;97.62;102973.16;5043412;28;20033;-93
2022/03/27 06:21:56;;;;;;;66.45;31.92;;;;;;;6.88;97.69;102977.56;5044190;28;20034;-92
2022/03/27 06:24:22;;;;;;;69.75;29.05;;;;;;;6.85;98.03;102970.50;5047265;28;20025;-92
2022/03/27 06:26:47;;;;;;;58.38;29.50;;;;;;;6.87;97.86;102968.75;5046174;28;20419;-93
2022/03/27 06:29:14;;;;;;;60.03;29.90;;;;;;;6.90;97.82;102966.09;5050448;28;20167;-96
2022/03/27 06:31:40;;;;;;;62.03;28.35;;;;;;;6.95;98.20;102979.31;5049949;28;20025;-96
2022/03/27 06:34:06;;;;;;;61.65;30.25;;;;;;;6.95;98.27;102989.91;5052397;28;20036;-96
2022/03/27 06:36:32;;;;;;;57.80;28.27;;;;;;;6.99;98.10;102992.56;5049960;28;20486;-96
2022/03/27 06:38:58;;;;;;;58.47;28.65;;;;;;;7.01;98.21;102983.72;5028583;28;20049;-96
2022/03/27 06:41:23;;;;;;;58.05;26.05;;;;;;;6.99;97.86;102983.72;5044422;28;20025;-96
2022/03/27 06:43:48;;;;;;;56.58;27.05;;;;;;;6.94;97.95;102982.88;5037001;28;20033;-95
2022/03/27 06:46:16;;;;;;;55.60;26.58;;;;;;;6.96;98.13;102987.25;5067027;28;20043;-94
2022/03/27 06:48:46;;;;;;;54.20;24.90;;;;;;;6.96;97.76;102987.25;5051370;28;20032;-93
2022/03/27 06:51:11;;;;;;;57.15;24.38;;;;;;;6.88;97.84;102977.56;5056484;28;20470;-95
2022/03/27 06:53:37;;;;;;;45.78;23.88;;;;;;;6.84;97.86;102984.63;5060530;28;20037;-93
2022/03/27 06:56:02;;;;;;;50.20;24.80;;;;;;;6.83;98.01;102979.34;5051373;28;20031;-94
2022/03/27 06:58:28;;;;;;;48.78;22.92;;;;;;;6.93;97.86;103002.25;5056891;28;20021;-93
2022/03/27 07:03:37;;;;;;;49.55;23.55;;;;;;;6.92;97.90;102996.09;5052075;28;20052;-94
2022/03/27 07:06:02;;;;;;;44.90;21.85;;;;;;;6.91;97.49;102990.81;5054818;28;20040;-93
2022/03/27 07:08:27;;;;;;;48.88;23.17;;;;;;;6.94;97.03;102990.81;5050903;28;20363;-93
2022/03/27 07:10:53;;;;;;;47.05;21.80;;;;;;;6.96;96.93;102996.97;5056485;28;20075;-93
2022/03/27 07:13:19;;;;;;;43.03;21.02;;;;;;;6.86;97.30;102985.50;5047865;28;20100;-93
2022/03/27 07:15:47;;;;;;;51.65;20.73;;;;;;;6.92;96.97;102993.44;5054201;28;20040;-93
2022/03/27 07:18:13;;;;;;;45.30;20.98;;;;;;;6.90;96.94;103000.50;5052632;28;20028;-92
2022/03/27 07:20:41;;;;;;;42.95;19.75;;;;;;;6.90;96.68;103002.28;5057307;28;20434;-94
2022/03/27 07:23:09;;;;;;;42.33;18.70;;;;;;;6.89;96.78;103006.66;5048920;28;20021;-90
2022/03/27 07:25:38;;;;;;;31.70;17.88;;;;;;;6.94;96.46;103014.63;5048620;28;20123;-92
2022/03/27 07:28:05;;;;;;;34.15;17.83;;;;;;;6.88;96.36;102996.97;5068560;28;20040;-90
2022/03/27 07:30:31;;;;;;;37.60;18.48;;;;;;;6.91;96.18;103002.28;5062255;28;20037;-91
2022/03/27 07:32:57;;;;;;;36.50;18.77;;;;;;;6.90;96.00;103008.44;5049138;28;20029;-94
2022/03/27 07:35:23;;;;;;;36.13;19.35;;;;;;;6.93;96.67;103005.78;5048743;28;20029;-92
2022/03/27 07:37:51;;;;;;;36.08;19.63;;;;;;;7.04;96.06;103015.50;5049118;28;20065;-92
2022/03/27 07:40:17;;;;;;;34.95;18.95;;;;;;;7.07;95.92;103007.56;5046034;28;20080;-93
2022/03/27 07:42:47;;;;;;;34.95;18.25;;;;;;;7.06;95.30;103003.13;5062591;28;20029;-93
2022/03/27 07:45:13;;;;;;;34.03;17.50;;;;;;;7.09;95.06;103001.34;5045363;28;20067;-92
2022/03/27 07:47:39;;;;;;;31.27;16.33;;;;;;;7.15;94.38;103003.13;5050384;28;20078;-92
2022/03/27 07:50:07;;;;;;;35.88;18.90;;;;;;;7.21;94.63;103019.00;5046403;28;20036;-93
2022/03/27 07:52:36;;;;;;;34.40;18.25;;;;;;;7.22;94.44;103008.38;5048337;28;20112;-91
2022/03/27 07:55:02;;;;;;;40.63;18.65;;;;;;;7.28;94.19;103017.22;5049246;28;20773;-91
2022/03/27 07:57:28;;;;;;;36.35;17.75;;;;;;;7.29;93.74;102996.00;5046812;28;20164;-92
2022/03/27 07:59:53;;;;;;;38.55;19.08;;;;;;;7.37;93.69;103007.47;5047630;28;20104;-92
2022/03/27 08:02:19;;;;;;;36.95;18.55;;;;;;;7.35;93.60;103006.56;5043145;28;20025;-86
2022/03/27 08:04:45;;;;;;;37.10;19.55;;;;;;;7.35;93.81;103008.34;5051196;28;20063;-94
2022/03/27 08:07:10;;;;;;;37.92;19.67;;;;;;;7.36;93.92;103000.41;5056459;28;20093;-96
2022/03/27 08:09:36;;;;;;;36.40;19.00;;;;;;;7.43;93.75;103002.13;5050794;28;20029;-92
2022/03/27 08:12:02;;;;;;;41.50;20.50;;;;;;;7.44;93.65;102995.97;5051618;28;20037;-93
2022/03/27 08:14:31;;;;;;;38.00;19.35;;;;;;;7.53;93.23;102997.72;5053615;28;20130;-95
2022/03/27 08:16:57;;;;;;;37.83;18.95;;;;;;;7.46;93.15;102994.19;5053089;28;20116;-91
2022/03/27 08:19:22;;;;;;;40.92;20.55;;;;;;;7.50;93.45;102992.41;5054466;28;20021;-95
2022/03/27 08:21:48;;;;;;;41.72;19.83;;;;;;;7.46;93.37;102990.66;5049530;28;20025;-87
2022/03/27 08:24:13;;;;;;;36.95;20.23;;;;;;;7.47;93.69;102995.06;5047604;28;20481;-85
2022/03/27 08:26:57;;;;;;;39.70;19.42;;;;;;;7.49;93.73;102996.84;5043403;28;20035;-84
2022/03/27 08:29:29;;;;;;;40.90;21.52;;;;;;;7.53;93.66;102997.72;5046864;28;20053;-91
2022/03/27 08:31:55;;;;;;;44.47;22.02;;;;;;;7.59;93.21;102999.44;5049686;28;20211;-86
2022/03/27 08:34:23;;;;;;;46.53;21.83;;;;;;;7.63;93.31;102998.53;5045776;28;20467;-83
2022/03/27 08:36:49;;;;;;;43.15;20.80;;;;;;;7.57;93.10;103001.22;5044260;28;20033;-85
2022/03/27 08:39:14;;;;;;;41.08;20.30;;;;;;;7.59;93.38;103010.03;5046359;28;20406;-87
2022/03/27 08:41:43;;;;;;;42.03;20.98;;;;;;;7.65;93.06;103004.69;5043098;28;20025;-86
2022/03/27 08:44:10;;;;;;;41.80;21.05;;;;;;;7.60;92.60;102985.28;5047087;28;20048;-86
2022/03/27 08:46:35;;;;;;;39.08;19.90;;;;;;;7.66;92.54;102999.41;5042095;28;20103;-90
2022/03/27 08:49:07;;;;;;;37.38;19.85;;;;;;;7.63;92.42;103007.38;5046263;28;20640;-87
2022/03/27 08:51:38;;;;;;;40.53;20.67;;;;;;;7.60;92.89;103003.84;5045833;28;20032;-86
2022/03/27 08:54:07;;;;;;;41.20;20.70;;;;;;;7.61;93.08;103008.28;5041261;28;20387;-88
2022/03/27 08:56:33;;;;;;;37.00;20.33;;;;;;;7.59;92.89;103008.28;5049042;28;20032;-89
2022/03/27 08:59:05;;;;;;;41.80;21.98;;;;;;;7.62;92.92;103008.25;5045154;28;20116;-88
2022/03/27 09:01:31;;;;;;;39.42;20.60;;;;;;;7.66;92.76;103010.03;5041177;28;20055;-90
2022/03/27 09:03:57;;;;;;;38.33;19.45;;;;;;;7.71;93.02;103004.69;5046930;28;20033;-88
2022/03/27 09:06:22;;;;;;;40.35;19.92;;;;;;;7.77;91.51;103015.25;5045949;28;20394;-90
2022/03/27 09:08:49;;;;;;;36.53;19.92;;;;;;;7.80;92.06;103014.38;5042511;28;20679;-89
2022/03/27 09:11:16;;;;;;;33.75;19.38;;;;;;;7.89;91.65;103014.31;5046218;28;20029;-89
2022/03/27 09:13:46;;;;;;;37.42;19.25;;;;;;;7.94;91.42;103013.44;5047358;28;20100;-90
2022/03/27 09:16:11;;;;;;;38.30;19.65;;;;;;;7.98;90.88;103009.88;5056400;28;20033;-90
2022/03/27 09:18:47;;;;;;;37.33;20.17;;;;;;;8.05;90.64;103020.44;5052182;28;20454;-92
2022/03/27 09:21:13;;;;;;;38.58;19.73;;;;;;;8.03;90.32;103022.22;5052356;28;20033;-95
2022/03/27 09:23:39;;;;;;;42.35;20.85;;;;;;;8.07;90.36;103018.63;5055262;28;20520;-92
2022/03/27 09:26:07;;;;;;;38.33;20.63;;;;;;;8.04;90.30;103027.50;5057737;28;20022;-93
2022/03/27 09:28:44;;;;;;;37.80;20.98;;;;;;;8.13;90.39;103023.91;5046455;28;20055;-87
2022/03/27 09:31:18;;;;;;;35.60;19.67;;;;;;;8.17;89.95;103023.00;5050473;28;20032;-96
2022/03/27 09:33:47;;;;;;;37.97;21.60;;;;;;;8.27;89.66;103021.16;5046117;28;20044;-88
2022/03/27 09:36:28;;;;;;;39.45;21.48;;;;;;;8.38;89.56;103025.56;5048352;28;20036;-92
2022/03/27 09:39:07;;;;;;;38.70;21.33;;;;;;;8.50;88.81;103023.72;5056021;28;20028;-92
2022/03/27 09:41:42;;;;;;;37.45;20.63;;;;;;;8.47;88.16;103025.50;5045313;28;20092;-89
2022/03/27 09:44:11;;;;;;;36.75;20.17;;;;;;;8.31;88.23;103005.22;5047294;28;20040;-90
2022/03/27 09:46:55;;;;;;;37.25;19.75;;;;;;;8.36;88.57;103024.66;5033087;28;20057;-91
2022/03/27 09:49:25;;;;;;;37.78;19.25;;;;;;;8.35;88.41;103012.25;5053920;28;20123;-91
2022/03/27 09:51:59;;;;;;;33.78;19.90;;;;;;;8.40;88.06;102994.59;5058340;28;20017;-96
2022/03/27 09:54:26;;;;;;;38.40;20.75;;;;;;;8.51;87.25;102991.84;5061811;28;20013;-95
2022/03/27 09:56:52;;;;;;;40.92;21.67;;;;;;;8.52;86.79;102984.75;5062448;28;20029;-93
2022/03/27 09:59:28;;;;;;;38.58;21.23;;;;;;;8.60;87.07;102999.72;5047133;28;20115;-91
2022/03/27 10:01:54;;;;;;;39.20;20.65;;;;;;;8.65;86.61;102997.03;5044431;28;20028;-89
2022/03/27 10:04:19;;;;;;;41.95;22.08;;;;;;;8.73;86.24;102995.19;5050136;28;20378;-91
2022/03/27 10:06:45;;;;;;;41.30;21.92;;;;;;;8.79;85.74;102986.31;5042509;28;20029;-88
2022/03/27 10:09:11;;;;;;;41.10;23.23;;;;;;;8.98;85.70;102987.88;5042907;28;20021;-90
2022/03/27 10:11:39;;;;;;;44.15;22.42;;;;;;;9.03;85.01;102975.44;5042891;28;20056;-88
2022/03/27 10:14:06;;;;;;;40.05;23.48;;;;;;;9.03;84.58;102980.75;5039041;28;20064;-88
2022/03/27 10:16:36;;;;;;;39.55;22.27;;;;;;;8.98;84.66;102979.91;5045109;28;20043;-94
2022/03/27 10:19:29;;;;;;;39.00;22.48;;;;;;;9.09;84.85;102974.50;5041524;28;20059;-88
2022/03/27 10:21:54;;;;;;;42.45;23.58;;;;;;;9.28;84.54;102986.69;5050218;28;20032;-90
2022/03/27 10:24:25;;;;;;;39.88;23.10;;;;;;;9.38;83.52;102977.69;5053613;28;20036;-91
2022/03/27 10:26:52;;;;;;;33.42;20.55;;;;;;;9.53;83.10;102975.75;5047722;28;20029;-92
2022/03/27 10:29:17;;;;;;;38.45;22.00;;;;;;;9.54;82.58;102965.13;5053689;28;20044;-88
2022/03/27 10:31:42;;;;;;;39.53;21.85;;;;;;;9.62;82.40;102971.22;5054193;28;20033;-85
2022/03/27 10:34:10;;;;;;;40.00;21.63;;;;;;;9.62;82.38;102984.50;5042982;28;20038;-89
2022/03/27 10:37:00;;;;;;;39.05;22.20;;;;;;;9.61;82.42;102971.22;5044954;28;20035;-91
2022/03/27 10:39:34;;;;;;;37.38;21.55;;;;;;;9.68;81.83;102978.22;5058077;28;20426;-88
2022/03/27 10:42:14;;;;;;;34.67;19.67;;;;;;;9.71;81.87;102965.75;5053383;28;20025;-92
2022/03/27 10:44:44;;;;;;;34.05;19.13;;;;;;;9.81;80.63;102970.94;5056661;28;20554;-89
2022/03/27 10:47:18;;;;;;;31.20;19.42;;;;;;;9.76;80.47;102972.81;5042975;28;20037;-89
2022/03/27 10:50:05;;;;;;;28.05;18.10;;;;;;;9.84;80.64;102969.13;5054490;28;20036;-92
2022/03/27 10:52:34;;;;;;;26.52;17.08;;;;;;;9.88;79.83;102975.28;5046952;28;20086;-91
2022/03/27 10:55:02;;;;;;;26.90;16.95;;;;;;;9.89;79.74;102969.94;5047193;28;20508;-93
2022/03/27 10:57:30;;;;;;;25.75;16.65;;;;;;;9.98;79.18;102963.59;5045798;28;20033;-89
2022/03/27 10:59:56;;;;;;;24.73;16.08;;;;;;;10.00;79.18;102958.28;5046076;28;20025;-88
2022/03/27 11:02:41;;;;;;;29.33;17.05;;;;;;;10.15;79.04;102960.69;5039543;28;20036;-89
2022/03/27 11:05:06;;;;;;;32.78;18.95;;;;;;;10.19;78.38;102960.63;5049815;28;20495;-88
2022/03/27 11:07:32;;;;;;;26.88;16.75;;;;;;;10.40;77.65;102961.22;5048983;28;20056;-89
2022/03/27 11:09:57;;;;;;;32.25;18.50;;;;;;;10.52;77.14;102958.34;5048393;28;20043;-89
2022/03/27 11:12:22;;;;;;;27.30;17.63;;;;;;;10.55;76.49;102955.66;5046940;28;20494;-90
2022/03/27 11:14:59;;;;;;;28.30;17.23;;;;;;;10.61;76.59;102952.88;5042969;28;20059;-86
2022/03/27 11:17:45;;;;;;;30.83;19.20;;;;;;;10.66;76.68;102950.16;5042141;28;20401;-85
2022/03/27 11:20:23;;;;;;;26.73;17.25;;;;;;;10.95;76.28;102947.84;5044707;28;20044;-86